sensor_id;sensor_type;location;lat;lon;timestamp;P1;P2;P0
38288;PMS5003;24092;53.370;-6.588;2022-08-11T00:01:04;8;8;
38288;PMS5003;24092;53.370;-6.588;2022-08-11T00:03:34;9;8;
38288;PMS5003;24092;53.370;-6.588;2022-08-11T00:06:07;7;6;
38288;PMS5003;24092;53.370;-6.588;2022-08-11T00:08:35;7;7;
38288;PMS5003;24092;53.370;-6.588;2022-08-11T00:11:05;8;7;
38288;PMS5003;24092;53.370;-6.588;2022-08-11T00:13:35;9;9;
38288;PMS5003;24092;53.370;-6.588;2022-08-11T00:16:11;9;9;
38288;PMS5003;24092;53.370;-6.588;2022-08-11T00:18:41;9;9;
38288;PMS5003;24092;53.370;-6.588;2022-08-11T00:21:10;7;7;
38288;PMS5003;24092;53.370;-6.588;2022-08-11T00:23:40;16;14;
38288;PMS5003;24092;53.370;-6.588;2022-08-11T00:26:09;9;8;
38288;PMS5003;24092;53.370;-6.588;2022-08-11T00:28:37;7;7;
38288;PMS5003;24092;53.370;-6.588;2022-08-11T00:31:06;10;9;
38288;PMS5003;24092;53.370;-6.588;2022-08-11T00:33:37;9;8;
38288;PMS5003;24092;53.370;-6.588;2022-08-11T00:36:07;10;8;
38288;PMS5003;24092;53.370;-6.588;2022-08-11T00:38:37;9;8;
38288;PMS5003;24092;53.370;-6.588;2022-08-11T00:41:10;8;8;
38288;PMS5003;24092;53.370;-6.588;2022-08-11T00:43:49;9;9;
38288;PMS5003;24092;53.370;-6.588;2022-08-11T00:46:31;9;9;
38288;PMS5003;24092;53.370;-6.588;2022-08-11T00:49:10;11;9;
38288;PMS5003;24092;53.370;-6.588;2022-08-11T00:51:49;11;10;
38288;PMS5003;24092;53.370;-6.588;2022-08-11T00:54:29;10;9;
38288;PMS5003;24092;53.370;-6.588;2022-08-11T00:57:18;11;11;
38288;PMS5003;24092;53.370;-6.588;2022-08-11T01:00:03;9;9;
38288;PMS5003;24092;53.370;-6.588;2022-08-11T01:02:43;9;9;
38288;PMS5003;24092;53.370;-6.588;2022-08-11T01:05:44;10;10;
38288;PMS5003;24092;53.370;-6.588;2022-08-11T01:08:29;10;9;
38288;PMS5003;24092;53.370;-6.588;2022-08-11T01:10:50;10;9;
38288;PMS5003;24092;53.370;-6.588;2022-08-11T01:13:32;10;10;
38288;PMS5003;24092;53.370;-6.588;2022-08-11T01:16:31;14;13;
38288;PMS5003;24092;53.370;-6.588;2022-08-11T01:19:27;10;10;
38288;PMS5003;24092;53.370;-6.588;2022-08-11T01:22:20;9;9;
38288;PMS5003;24092;53.370;-6.588;2022-08-11T01:25:14;12;12;
38288;PMS5003;24092;53.370;-6.588;2022-08-11T01:28:28;9;9;
38288;PMS5003;24092;53.370;-6.588;2022-08-11T01:30:59;9;9;
38288;PMS5003;24092;53.370;-6.588;2022-08-11T01:34:07;9;7;
38288;PMS5003;24092;53.370;-6.588;2022-08-11T01:36:38;9;7;
38288;PMS5003;24092;53.370;-6.588;2022-08-11T01:39:03;9;8;
38288;PMS5003;24092;53.370;-6.588;2022-08-11T01:41:55;11;11;
38288;PMS5003;24092;53.370;-6.588;2022-08-11T01:44:39;9;9;
38288;PMS5003;24092;53.370;-6.588;2022-08-11T01:47:31;13;13;
38288;PMS5003;24092;53.370;-6.588;2022-08-11T01:50:04;9;9;
38288;PMS5003;24092;53.370;-6.588;2022-08-11T01:52:41;10;10;
38288;PMS5003;24092;53.370;-6.588;2022-08-11T01:55:24;11;9;
38288;PMS5003;24092;53.370;-6.588;2022-08-11T01:57:59;13;13;
38288;PMS5003;24092;53.370;-6.588;2022-08-11T02:00:36;9;9;
38288;PMS5003;24092;53.370;-6.588;2022-08-11T02:03:20;11;11;
38288;PMS5003;24092;53.370;-6.588;2022-08-11T02:05:57;11;9;
38288;PMS5003;24092;53.370;-6.588;2022-08-11T02:08:34;9;9;
38288;PMS5003;24092;53.370;-6.588;2022-08-11T02:11:16;11;11;
38288;PMS5003;24092;53.370;-6.588;2022-08-11T02:13:50;10;10;
38288;PMS5003;24092;53.370;-6.588;2022-08-11T02:16:27;10;9;
38288;PMS5003;24092;53.370;-6.588;2022-08-11T02:19:05;10;9;
38288;PMS5003;24092;53.370;-6.588;2022-08-11T02:21:45;11;9;
38288;PMS5003;24092;53.370;-6.588;2022-08-11T02:24:22;14;13;
38288;PMS5003;24092;53.370;-6.588;2022-08-11T02:26:55;11;11;
38288;PMS5003;24092;53.370;-6.588;2022-08-11T02:29:32;13;12;
38288;PMS5003;24092;53.370;-6.588;2022-08-11T02:32:10;12;12;
38288;PMS5003;24092;53.370;-6.588;2022-08-11T02:34:45;12;11;
38288;PMS5003;24092;53.370;-6.588;2022-08-11T02:37:19;12;12;
38288;PMS5003;24092;53.370;-6.588;2022-08-11T02:39:57;10;9;
38288;PMS5003;24092;53.370;-6.588;2022-08-11T02:42:39;11;10;
38288;PMS5003;24092;53.370;-6.588;2022-08-11T02:45:30;15;14;
38288;PMS5003;24092;53.370;-6.588;2022-08-11T02:51:04;7;7;
38288;PMS5003;24092;53.370;-6.588;2022-08-11T02:53:48;7;6;
38288;PMS5003;24092;53.370;-6.588;2022-08-11T02:56:26;8;8;
38288;PMS5003;24092;53.370;-6.588;2022-08-11T02:59:06;9;8;
38288;PMS5003;24092;53.370;-6.588;2022-08-11T03:01:44;10;9;
38288;PMS5003;24092;53.370;-6.588;2022-08-11T03:04:18;10;10;
38288;PMS5003;24092;53.370;-6.588;2022-08-11T03:06:52;10;9;
38288;PMS5003;24092;53.370;-6.588;2022-08-11T03:09:41;10;10;
38288;PMS5003;24092;53.370;-6.588;2022-08-11T03:12:17;9;9;
38288;PMS5003;24092;53.370;-6.588;2022-08-11T03:14:52;11;11;
38288;PMS5003;24092;53.370;-6.588;2022-08-11T03:17:27;12;11;
38288;PMS5003;24092;53.370;-6.588;2022-08-11T03:20:02;12;8;
38288;PMS5003;24092;53.370;-6.588;2022-08-11T03:22:39;13;11;
38288;PMS5003;24092;53.370;-6.588;2022-08-11T03:25:23;11;10;
38288;PMS5003;24092;53.370;-6.588;2022-08-11T03:27:59;10;9;
38288;PMS5003;24092;53.370;-6.588;2022-08-11T03:30:39;9;8;
38288;PMS5003;24092;53.370;-6.588;2022-08-11T03:33:16;10;9;
38288;PMS5003;24092;53.370;-6.588;2022-08-11T03:35:49;10;10;
38288;PMS5003;24092;53.370;-6.588;2022-08-11T03:38:31;9;7;
38288;PMS5003;24092;53.370;-6.588;2022-08-11T03:41:18;9;9;
38288;PMS5003;24092;53.370;-6.588;2022-08-11T03:43:54;11;10;
38288;PMS5003;24092;53.370;-6.588;2022-08-11T03:46:42;11;9;
38288;PMS5003;24092;53.370;-6.588;2022-08-11T03:49:28;12;11;
38288;PMS5003;24092;53.370;-6.588;2022-08-11T03:52:04;6;6;
38288;PMS5003;24092;53.370;-6.588;2022-08-11T03:54:49;7;7;
38288;PMS5003;24092;53.370;-6.588;2022-08-11T03:57:37;10;9;
38288;PMS5003;24092;53.370;-6.588;2022-08-11T04:00:20;14;11;
38288;PMS5003;24092;53.370;-6.588;2022-08-11T04:03:14;14;13;
38288;PMS5003;24092;53.370;-6.588;2022-08-11T04:07:18;12;10;
38288;PMS5003;24092;53.370;-6.588;2022-08-11T04:10:48;10;9;
38288;PMS5003;24092;53.370;-6.588;2022-08-11T04:13:52;7;7;
38288;PMS5003;24092;53.370;-6.588;2022-08-11T04:16:50;10;9;
38288;PMS5003;24092;53.370;-6.588;2022-08-11T04:19:46;8;8;
38288;PMS5003;24092;53.370;-6.588;2022-08-11T04:22:34;10;10;
38288;PMS5003;24092;53.370;-6.588;2022-08-11T04:25:56;11;10;
38288;PMS5003;24092;53.370;-6.588;2022-08-11T04:28:49;10;10;
38288;PMS5003;24092;53.370;-6.588;2022-08-11T04:31:32;10;10;
38288;PMS5003;24092;53.370;-6.588;2022-08-11T04:34:04;10;9;
38288;PMS5003;24092;53.370;-6.588;2022-08-11T04:35:21;10;9;
38288;PMS5003;24092;53.370;-6.588;2022-08-11T04:38:07;17;15;
38288;PMS5003;24092;53.370;-6.588;2022-08-11T04:42:01;13;12;
38288;PMS5003;24092;53.370;-6.588;2022-08-11T04:44:59;11;11;
38288;PMS5003;24092;53.370;-6.588;2022-08-11T04:47:49;11;10;
38288;PMS5003;24092;53.370;-6.588;2022-08-11T04:50:30;15;14;
38288;PMS5003;24092;53.370;-6.588;2022-08-11T04:53:13;10;9;
38288;PMS5003;24092;53.370;-6.588;2022-08-11T04:56:10;9;9;
38288;PMS5003;24092;53.370;-6.588;2022-08-11T04:58:46;11;11;
38288;PMS5003;24092;53.370;-6.588;2022-08-11T05:01:26;11;11;
38288;PMS5003;24092;53.370;-6.588;2022-08-11T05:05:08;11;10;
38288;PMS5003;24092;53.370;-6.588;2022-08-11T05:08:26;10;9;
38288;PMS5003;24092;53.370;-6.588;2022-08-11T05:11:19;10;9;
38288;PMS5003;24092;53.370;-6.588;2022-08-11T05:14:17;12;10;
38288;PMS5003;24092;53.370;-6.588;2022-08-11T05:16:55;9;9;
38288;PMS5003;24092;53.370;-6.588;2022-08-11T05:19:26;13;13;
38288;PMS5003;24092;53.370;-6.588;2022-08-11T05:21:54;13;11;
38288;PMS5003;24092;53.370;-6.588;2022-08-11T05:24:25;14;11;
38288;PMS5003;24092;53.370;-6.588;2022-08-11T05:26:56;12;12;
38288;PMS5003;24092;53.370;-6.588;2022-08-11T05:29:37;13;12;
38288;PMS5003;24092;53.370;-6.588;2022-08-11T05:32:07;18;16;
38288;PMS5003;24092;53.370;-6.588;2022-08-11T05:34:42;12;12;
38288;PMS5003;24092;53.370;-6.588;2022-08-11T05:37:13;12;11;
38288;PMS5003;24092;53.370;-6.588;2022-08-11T05:39:49;13;13;
38288;PMS5003;24092;53.370;-6.588;2022-08-11T05:42:21;13;11;
38288;PMS5003;24092;53.370;-6.588;2022-08-11T05:44:51;17;16;
38288;PMS5003;24092;53.370;-6.588;2022-08-11T05:47:23;12;12;
38288;PMS5003;24092;53.370;-6.588;2022-08-11T05:49:51;17;14;
38288;PMS5003;24092;53.370;-6.588;2022-08-11T05:52:20;10;10;
38288;PMS5003;24092;53.370;-6.588;2022-08-11T05:54:49;15;12;
38288;PMS5003;24092;53.370;-6.588;2022-08-11T05:57:17;15;15;
38288;PMS5003;24092;53.370;-6.588;2022-08-11T05:59:45;19;18;
38288;PMS5003;24092;53.370;-6.588;2022-08-11T06:02:13;14;13;
38288;PMS5003;24092;53.370;-6.588;2022-08-11T06:04:42;16;15;
38288;PMS5003;24092;53.370;-6.588;2022-08-11T06:07:10;16;16;
38288;PMS5003;24092;53.370;-6.588;2022-08-11T06:09:45;20;17;
38288;PMS5003;24092;53.370;-6.588;2022-08-11T06:12:15;20;17;
38288;PMS5003;24092;53.370;-6.588;2022-08-11T06:14:46;16;16;
38288;PMS5003;24092;53.370;-6.588;2022-08-11T06:17:20;15;14;
38288;PMS5003;24092;53.370;-6.588;2022-08-11T06:19:49;16;15;
38288;PMS5003;24092;53.370;-6.588;2022-08-11T06:22:19;17;15;
38288;PMS5003;24092;53.370;-6.588;2022-08-11T06:24:50;13;12;
38288;PMS5003;24092;53.370;-6.588;2022-08-11T06:27:20;17;16;
38288;PMS5003;24092;53.370;-6.588;2022-08-11T06:29:49;17;17;
38288;PMS5003;24092;53.370;-6.588;2022-08-11T06:32:18;13;13;
38288;PMS5003;24092;53.370;-6.588;2022-08-11T06:34:53;15;13;
38288;PMS5003;24092;53.370;-6.588;2022-08-11T06:37:29;17;14;
38288;PMS5003;24092;53.370;-6.588;2022-08-11T06:40:10;17;15;
38288;PMS5003;24092;53.370;-6.588;2022-08-11T06:42:55;15;15;
38288;PMS5003;24092;53.370;-6.588;2022-08-11T06:45:29;12;12;
38288;PMS5003;24092;53.370;-6.588;2022-08-11T06:48:00;13;12;
38288;PMS5003;24092;53.370;-6.588;2022-08-11T06:50:28;12;12;
38288;PMS5003;24092;53.370;-6.588;2022-08-11T06:52:57;10;10;
38288;PMS5003;24092;53.370;-6.588;2022-08-11T06:55:25;10;10;
38288;PMS5003;24092;53.370;-6.588;2022-08-11T06:57:54;16;15;
38288;PMS5003;24092;53.370;-6.588;2022-08-11T07:00:22;12;11;
38288;PMS5003;24092;53.370;-6.588;2022-08-11T07:02:52;14;11;
38288;PMS5003;24092;53.370;-6.588;2022-08-11T07:05:26;11;10;
38288;PMS5003;24092;53.370;-6.588;2022-08-11T07:08:09;8;8;
38288;PMS5003;24092;53.370;-6.588;2022-08-11T07:10:54;10;9;
38288;PMS5003;24092;53.370;-6.588;2022-08-11T07:13:31;11;9;
38288;PMS5003;24092;53.370;-6.588;2022-08-11T07:16:01;9;9;
38288;PMS5003;24092;53.370;-6.588;2022-08-11T07:18:30;8;8;
38288;PMS5003;24092;53.370;-6.588;2022-08-11T07:21:18;9;9;
38288;PMS5003;24092;53.370;-6.588;2022-08-11T07:23:50;8;8;
38288;PMS5003;24092;53.370;-6.588;2022-08-11T07:26:23;15;13;
38288;PMS5003;24092;53.370;-6.588;2022-08-11T07:28:51;9;9;
38288;PMS5003;24092;53.370;-6.588;2022-08-11T07:31:23;10;9;
38288;PMS5003;24092;53.370;-6.588;2022-08-11T07:34:00;7;7;
38288;PMS5003;24092;53.370;-6.588;2022-08-11T07:36:36;10;8;
38288;PMS5003;24092;53.370;-6.588;2022-08-11T07:39:09;8;7;
38288;PMS5003;24092;53.370;-6.588;2022-08-11T07:41:43;8;8;
38288;PMS5003;24092;53.370;-6.588;2022-08-11T07:44:11;9;8;
38288;PMS5003;24092;53.370;-6.588;2022-08-11T07:46:41;7;7;
38288;PMS5003;24092;53.370;-6.588;2022-08-11T07:49:09;7;7;
38288;PMS5003;24092;53.370;-6.588;2022-08-11T07:51:37;11;7;
38288;PMS5003;24092;53.370;-6.588;2022-08-11T07:54:06;7;6;
38288;PMS5003;24092;53.370;-6.588;2022-08-11T07:56:36;9;9;
38288;PMS5003;24092;53.370;-6.588;2022-08-11T07:59:04;6;6;
38288;PMS5003;24092;53.370;-6.588;2022-08-11T08:01:32;7;7;
38288;PMS5003;24092;53.370;-6.588;2022-08-11T08:03:59;7;7;
38288;PMS5003;24092;53.370;-6.588;2022-08-11T08:06:27;6;6;
38288;PMS5003;24092;53.370;-6.588;2022-08-11T08:08:58;9;7;
38288;PMS5003;24092;53.370;-6.588;2022-08-11T08:11:26;9;8;
38288;PMS5003;24092;53.370;-6.588;2022-08-11T08:13:54;8;7;
38288;PMS5003;24092;53.370;-6.588;2022-08-11T08:16:22;9;9;
38288;PMS5003;24092;53.370;-6.588;2022-08-11T08:18:49;5;5;
38288;PMS5003;24092;53.370;-6.588;2022-08-11T08:21:17;6;6;
38288;PMS5003;24092;53.370;-6.588;2022-08-11T08:23:45;10;8;
38288;PMS5003;24092;53.370;-6.588;2022-08-11T08:26:13;8;6;
38288;PMS5003;24092;53.370;-6.588;2022-08-11T08:28:41;8;6;
38288;PMS5003;24092;53.370;-6.588;2022-08-11T08:31:08;7;7;
38288;PMS5003;24092;53.370;-6.588;2022-08-11T08:33:35;7;6;
38288;PMS5003;24092;53.370;-6.588;2022-08-11T08:36:07;6;5;
38288;PMS5003;24092;53.370;-6.588;2022-08-11T08:38:36;6;6;
38288;PMS5003;24092;53.370;-6.588;2022-08-11T08:41:04;8;7;
38288;PMS5003;24092;53.370;-6.588;2022-08-11T08:43:32;6;6;
38288;PMS5003;24092;53.370;-6.588;2022-08-11T08:46:02;5;5;
38288;PMS5003;24092;53.370;-6.588;2022-08-11T08:48:34;8;7;
38288;PMS5003;24092;53.370;-6.588;2022-08-11T08:51:04;7;5;
38288;PMS5003;24092;53.370;-6.588;2022-08-11T08:53:37;11;10;
38288;PMS5003;24092;53.370;-6.588;2022-08-11T08:56:11;7;6;
38288;PMS5003;24092;53.370;-6.588;2022-08-11T08:58:39;8;8;
38288;PMS5003;24092;53.370;-6.588;2022-08-11T09:01:08;7;6;
38288;PMS5003;24092;53.370;-6.588;2022-08-11T09:03:36;7;6;
38288;PMS5003;24092;53.370;-6.588;2022-08-11T09:06:05;7;7;
38288;PMS5003;24092;53.370;-6.588;2022-08-11T09:08:33;6;5;
38288;PMS5003;24092;53.370;-6.588;2022-08-11T09:11:01;5;4;
38288;PMS5003;24092;53.370;-6.588;2022-08-11T09:13:30;7;6;
38288;PMS5003;24092;53.370;-6.588;2022-08-11T09:15:59;5;5;
38288;PMS5003;24092;53.370;-6.588;2022-08-11T09:18:26;5;5;
38288;PMS5003;24092;53.370;-6.588;2022-08-11T09:20:54;7;6;
38288;PMS5003;24092;53.370;-6.588;2022-08-11T09:23:22;7;5;
38288;PMS5003;24092;53.370;-6.588;2022-08-11T09:25:51;6;6;
38288;PMS5003;24092;53.370;-6.588;2022-08-11T09:28:21;5;4;
38288;PMS5003;24092;53.370;-6.588;2022-08-11T09:30:49;4;4;
38288;PMS5003;24092;53.370;-6.588;2022-08-11T09:33:18;5;4;
38288;PMS5003;24092;53.370;-6.588;2022-08-11T09:35:46;4;4;
38288;PMS5003;24092;53.370;-6.588;2022-08-11T09:38:17;4;4;
38288;PMS5003;24092;53.370;-6.588;2022-08-11T09:40:46;3;3;
38288;PMS5003;24092;53.370;-6.588;2022-08-11T09:43:15;5;5;
38288;PMS5003;24092;53.370;-6.588;2022-08-11T09:45:44;5;4;
38288;PMS5003;24092;53.370;-6.588;2022-08-11T09:48:12;7;7;
38288;PMS5003;24092;53.370;-6.588;2022-08-11T09:50:39;12;12;
38288;PMS5003;24092;53.370;-6.588;2022-08-11T09:53:07;4;4;
38288;PMS5003;24092;53.370;-6.588;2022-08-11T09:55:36;4;4;
38288;PMS5003;24092;53.370;-6.588;2022-08-11T09:58:04;2;2;
38288;PMS5003;24092;53.370;-6.588;2022-08-11T10:00:32;6;6;
38288;PMS5003;24092;53.370;-6.588;2022-08-11T10:03:01;4;3;
38288;PMS5003;24092;53.370;-6.588;2022-08-11T10:05:29;3;3;
38288;PMS5003;24092;53.370;-6.588;2022-08-11T10:07:56;4;4;
38288;PMS5003;24092;53.370;-6.588;2022-08-11T10:10:25;3;3;
38288;PMS5003;24092;53.370;-6.588;2022-08-11T10:12:55;4;4;
38288;PMS5003;24092;53.370;-6.588;2022-08-11T10:15:25;4;4;
38288;PMS5003;24092;53.370;-6.588;2022-08-11T10:17:57;6;5;
38288;PMS5003;24092;53.370;-6.588;2022-08-11T10:20:29;3;2;
38288;PMS5003;24092;53.370;-6.588;2022-08-11T10:23:00;3;3;
38288;PMS5003;24092;53.370;-6.588;2022-08-11T10:25:28;4;3;
38288;PMS5003;24092;53.370;-6.588;2022-08-11T10:27:55;5;5;
38288;PMS5003;24092;53.370;-6.588;2022-08-11T10:30:23;5;4;
38288;PMS5003;24092;53.370;-6.588;2022-08-11T10:32:52;4;4;
38288;PMS5003;24092;53.370;-6.588;2022-08-11T10:35:19;4;3;
38288;PMS5003;24092;53.370;-6.588;2022-08-11T10:37:47;0;0;
38288;PMS5003;24092;53.370;-6.588;2022-08-11T10:40:16;4;3;
38288;PMS5003;24092;53.370;-6.588;2022-08-11T10:42:46;2;2;
38288;PMS5003;24092;53.370;-6.588;2022-08-11T10:45:17;3;2;
38288;PMS5003;24092;53.370;-6.588;2022-08-11T10:47:45;4;4;
38288;PMS5003;24092;53.370;-6.588;2022-08-11T10:50:12;4;3;
38288;PMS5003;24092;53.370;-6.588;2022-08-11T10:52:40;3;3;
38288;PMS5003;24092;53.370;-6.588;2022-08-11T10:55:08;1;1;
38288;PMS5003;24092;53.370;-6.588;2022-08-11T10:57:35;3;3;
38288;PMS5003;24092;53.370;-6.588;2022-08-11T11:00:03;1;1;
38288;PMS5003;24092;53.370;-6.588;2022-08-11T11:02:33;2;2;
38288;PMS5003;24092;53.370;-6.588;2022-08-11T11:05:02;3;2;
38288;PMS5003;24092;53.370;-6.588;2022-08-11T11:07:36;5;3;
38288;PMS5003;24092;53.370;-6.588;2022-08-11T11:10:07;3;3;
38288;PMS5003;24092;53.370;-6.588;2022-08-11T11:12:36;3;3;
38288;PMS5003;24092;53.370;-6.588;2022-08-11T11:15:07;7;7;
38288;PMS5003;24092;53.370;-6.588;2022-08-11T11:17:37;2;2;
38288;PMS5003;24092;53.370;-6.588;2022-08-11T11:20:09;4;3;
38288;PMS5003;24092;53.370;-6.588;2022-08-11T11:22:38;3;3;
38288;PMS5003;24092;53.370;-6.588;2022-08-11T11:25:11;3;3;
38288;PMS5003;24092;53.370;-6.588;2022-08-11T11:27:53;3;3;
38288;PMS5003;24092;53.370;-6.588;2022-08-11T11:30:31;2;2;
38288;PMS5003;24092;53.370;-6.588;2022-08-11T11:33:07;6;6;
38288;PMS5003;24092;53.370;-6.588;2022-08-11T11:35:42;4;3;
38288;PMS5003;24092;53.370;-6.588;2022-08-11T11:38:14;4;2;
38288;PMS5003;24092;53.370;-6.588;2022-08-11T11:40:43;4;4;
38288;PMS5003;24092;53.370;-6.588;2022-08-11T11:43:10;4;3;
38288;PMS5003;24092;53.370;-6.588;2022-08-11T11:45:38;2;2;
38288;PMS5003;24092;53.370;-6.588;2022-08-11T11:48:07;3;3;
38288;PMS5003;24092;53.370;-6.588;2022-08-11T11:50:37;5;5;
38288;PMS5003;24092;53.370;-6.588;2022-08-11T11:53:05;4;4;
38288;PMS5003;24092;53.370;-6.588;2022-08-11T11:55:34;3;3;
38288;PMS5003;24092;53.370;-6.588;2022-08-11T11:58:02;4;3;
38288;PMS5003;24092;53.370;-6.588;2022-08-11T12:00:30;1;1;
38288;PMS5003;24092;53.370;-6.588;2022-08-11T12:02:58;3;3;
38288;PMS5003;24092;53.370;-6.588;2022-08-11T12:05:28;3;3;
38288;PMS5003;24092;53.370;-6.588;2022-08-11T12:07:59;1;1;
38288;PMS5003;24092;53.370;-6.588;2022-08-11T12:10:28;2;2;
38288;PMS5003;24092;53.370;-6.588;2022-08-11T12:12:57;4;4;
38288;PMS5003;24092;53.370;-6.588;2022-08-11T12:15:26;2;2;
38288;PMS5003;24092;53.370;-6.588;2022-08-11T12:17:54;1;1;
38288;PMS5003;24092;53.370;-6.588;2022-08-11T12:20:22;4;4;
38288;PMS5003;24092;53.370;-6.588;2022-08-11T12:22:49;5;3;
38288;PMS5003;24092;53.370;-6.588;2022-08-11T12:25:17;4;3;
38288;PMS5003;24092;53.370;-6.588;2022-08-11T12:27:44;4;4;
38288;PMS5003;24092;53.370;-6.588;2022-08-11T12:30:12;2;2;
38288;PMS5003;24092;53.370;-6.588;2022-08-11T12:32:39;3;3;
38288;PMS5003;24092;53.370;-6.588;2022-08-11T12:35:08;2;2;
38288;PMS5003;24092;53.370;-6.588;2022-08-11T12:37:36;4;3;
38288;PMS5003;24092;53.370;-6.588;2022-08-11T12:40:07;3;3;
38288;PMS5003;24092;53.370;-6.588;2022-08-11T12:42:37;1;1;
38288;PMS5003;24092;53.370;-6.588;2022-08-11T12:45:06;3;3;
38288;PMS5003;24092;53.370;-6.588;2022-08-11T12:47:36;4;3;
38288;PMS5003;24092;53.370;-6.588;2022-08-11T12:50:05;3;2;
38288;PMS5003;24092;53.370;-6.588;2022-08-11T12:52:34;2;2;
38288;PMS5003;24092;53.370;-6.588;2022-08-11T12:55:10;3;3;
38288;PMS5003;24092;53.370;-6.588;2022-08-11T12:57:41;2;2;
38288;PMS5003;24092;53.370;-6.588;2022-08-11T13:00:13;2;2;
38288;PMS5003;24092;53.370;-6.588;2022-08-11T13:02:41;5;4;
38288;PMS5003;24092;53.370;-6.588;2022-08-11T13:05:11;3;3;
38288;PMS5003;24092;53.370;-6.588;2022-08-11T13:07:40;3;3;
38288;PMS5003;24092;53.370;-6.588;2022-08-11T13:10:09;4;2;
38288;PMS5003;24092;53.370;-6.588;2022-08-11T13:12:38;4;3;
38288;PMS5003;24092;53.370;-6.588;2022-08-11T13:15:07;2;1;
38288;PMS5003;24092;53.370;-6.588;2022-08-11T13:17:37;4;3;
38288;PMS5003;24092;53.370;-6.588;2022-08-11T13:20:06;4;4;
38288;PMS5003;24092;53.370;-6.588;2022-08-11T13:22:36;2;2;
38288;PMS5003;24092;53.370;-6.588;2022-08-11T13:25:04;3;2;
38288;PMS5003;24092;53.370;-6.588;2022-08-11T13:27:33;5;4;
38288;PMS5003;24092;53.370;-6.588;2022-08-11T13:30:02;3;3;
38288;PMS5003;24092;53.370;-6.588;2022-08-11T13:32:30;4;3;
38288;PMS5003;24092;53.370;-6.588;2022-08-11T13:34:58;3;3;
38288;PMS5003;24092;53.370;-6.588;2022-08-11T13:37:25;3;3;
38288;PMS5003;24092;53.370;-6.588;2022-08-11T13:39:52;4;3;
38288;PMS5003;24092;53.370;-6.588;2022-08-11T13:42:20;3;3;
38288;PMS5003;24092;53.370;-6.588;2022-08-11T13:44:48;5;5;
38288;PMS5003;24092;53.370;-6.588;2022-08-11T13:47:15;9;5;
38288;PMS5003;24092;53.370;-6.588;2022-08-11T13:49:42;2;2;
38288;PMS5003;24092;53.370;-6.588;2022-08-11T13:52:12;7;5;
38288;PMS5003;24092;53.370;-6.588;2022-08-11T13:54:41;4;3;
38288;PMS5003;24092;53.370;-6.588;2022-08-11T13:57:11;3;3;
38288;PMS5003;24092;53.370;-6.588;2022-08-11T13:59:40;2;2;
38288;PMS5003;24092;53.370;-6.588;2022-08-11T14:02:11;11;3;
38288;PMS5003;24092;53.370;-6.588;2022-08-11T14:04:42;3;3;
38288;PMS5003;24092;53.370;-6.588;2022-08-11T14:07:15;3;3;
38288;PMS5003;24092;53.370;-6.588;2022-08-11T14:09:46;4;3;
38288;PMS5003;24092;53.370;-6.588;2022-08-11T14:12:19;3;3;
38288;PMS5003;24092;53.370;-6.588;2022-08-11T14:14:51;2;2;
38288;PMS5003;24092;53.370;-6.588;2022-08-11T14:17:26;5;4;
38288;PMS5003;24092;53.370;-6.588;2022-08-11T14:19:55;4;3;
38288;PMS5003;24092;53.370;-6.588;2022-08-11T14:22:23;2;2;
38288;PMS5003;24092;53.370;-6.588;2022-08-11T14:24:51;2;2;
38288;PMS5003;24092;53.370;-6.588;2022-08-11T14:27:18;3;3;
38288;PMS5003;24092;53.370;-6.588;2022-08-11T14:29:46;3;3;
38288;PMS5003;24092;53.370;-6.588;2022-08-11T14:32:14;2;2;
38288;PMS5003;24092;53.370;-6.588;2022-08-11T14:34:42;6;4;
38288;PMS5003;24092;53.370;-6.588;2022-08-11T14:37:11;2;2;
38288;PMS5003;24092;53.370;-6.588;2022-08-11T14:39:40;3;3;
38288;PMS5003;24092;53.370;-6.588;2022-08-11T14:42:09;2;2;
38288;PMS5003;24092;53.370;-6.588;2022-08-11T14:44:40;1;1;
38288;PMS5003;24092;53.370;-6.588;2022-08-11T14:47:09;3;3;
38288;PMS5003;24092;53.370;-6.588;2022-08-11T14:49:37;2;2;
38288;PMS5003;24092;53.370;-6.588;2022-08-11T14:52:06;3;2;
38288;PMS5003;24092;53.370;-6.588;2022-08-11T14:54:35;2;2;
38288;PMS5003;24092;53.370;-6.588;2022-08-11T14:57:03;3;3;
38288;PMS5003;24092;53.370;-6.588;2022-08-11T14:59:30;3;3;
38288;PMS5003;24092;53.370;-6.588;2022-08-11T15:01:59;1;1;
38288;PMS5003;24092;53.370;-6.588;2022-08-11T15:04:27;5;4;
38288;PMS5003;24092;53.370;-6.588;2022-08-11T15:06:55;1;1;
38288;PMS5003;24092;53.370;-6.588;2022-08-11T15:09:22;3;1;
38288;PMS5003;24092;53.370;-6.588;2022-08-11T15:11:50;2;2;
38288;PMS5003;24092;53.370;-6.588;2022-08-11T15:14:17;2;2;
38288;PMS5003;24092;53.370;-6.588;2022-08-11T15:16:45;2;2;
38288;PMS5003;24092;53.370;-6.588;2022-08-11T15:19:13;1;0;
38288;PMS5003;24092;53.370;-6.588;2022-08-11T15:21:41;3;2;
38288;PMS5003;24092;53.370;-6.588;2022-08-11T15:24:08;2;2;
38288;PMS5003;24092;53.370;-6.588;2022-08-11T15:26:36;3;2;
38288;PMS5003;24092;53.370;-6.588;2022-08-11T15:29:04;4;4;
38288;PMS5003;24092;53.370;-6.588;2022-08-11T15:31:33;3;2;
38288;PMS5003;24092;53.370;-6.588;2022-08-11T15:34:04;5;2;
38288;PMS5003;24092;53.370;-6.588;2022-08-11T15:36:34;2;2;
38288;PMS5003;24092;53.370;-6.588;2022-08-11T15:39:03;3;3;
38288;PMS5003;24092;53.370;-6.588;2022-08-11T15:41:38;3;3;
38288;PMS5003;24092;53.370;-6.588;2022-08-11T15:44:09;3;3;
38288;PMS5003;24092;53.370;-6.588;2022-08-11T15:46:41;4;2;
38288;PMS5003;24092;53.370;-6.588;2022-08-11T15:49:13;2;2;
38288;PMS5003;24092;53.370;-6.588;2022-08-11T15:51:54;2;2;
38288;PMS5003;24092;53.370;-6.588;2022-08-11T15:54:28;1;1;
38288;PMS5003;24092;53.370;-6.588;2022-08-11T15:56:57;2;2;
38288;PMS5003;24092;53.370;-6.588;2022-08-11T15:59:28;2;2;
38288;PMS5003;24092;53.370;-6.588;2022-08-11T16:01:59;9;8;
38288;PMS5003;24092;53.370;-6.588;2022-08-11T16:04:29;4;3;
38288;PMS5003;24092;53.370;-6.588;2022-08-11T16:06:59;3;3;
38288;PMS5003;24092;53.370;-6.588;2022-08-11T16:09:29;2;1;
38288;PMS5003;24092;53.370;-6.588;2022-08-11T16:12:01;3;2;
38288;PMS5003;24092;53.370;-6.588;2022-08-11T16:14:30;3;3;
38288;PMS5003;24092;53.370;-6.588;2022-08-11T16:17:02;2;2;
38288;PMS5003;24092;53.370;-6.588;2022-08-11T16:19:32;3;3;
38288;PMS5003;24092;53.370;-6.588;2022-08-11T16:22:01;1;1;
38288;PMS5003;24092;53.370;-6.588;2022-08-11T16:24:34;3;3;
38288;PMS5003;24092;53.370;-6.588;2022-08-11T16:27:03;1;1;
38288;PMS5003;24092;53.370;-6.588;2022-08-11T16:29:31;5;5;
38288;PMS5003;24092;53.370;-6.588;2022-08-11T16:32:01;2;2;
38288;PMS5003;24092;53.370;-6.588;2022-08-11T16:34:30;2;1;
38288;PMS5003;24092;53.370;-6.588;2022-08-11T16:36:59;2;1;
38288;PMS5003;24092;53.370;-6.588;2022-08-11T16:39:27;6;5;
38288;PMS5003;24092;53.370;-6.588;2022-08-11T16:41:54;3;3;
38288;PMS5003;24092;53.370;-6.588;2022-08-11T16:44:21;1;1;
38288;PMS5003;24092;53.370;-6.588;2022-08-11T16:46:50;2;2;
38288;PMS5003;24092;53.370;-6.588;2022-08-11T16:49:20;2;1;
38288;PMS5003;24092;53.370;-6.588;2022-08-11T16:51:51;1;1;
38288;PMS5003;24092;53.370;-6.588;2022-08-11T16:54:18;6;5;
38288;PMS5003;24092;53.370;-6.588;2022-08-11T16:56:46;3;3;
38288;PMS5003;24092;53.370;-6.588;2022-08-11T16:59:16;4;4;
38288;PMS5003;24092;53.370;-6.588;2022-08-11T17:01:50;5;4;
38288;PMS5003;24092;53.370;-6.588;2022-08-11T17:04:20;2;2;
38288;PMS5003;24092;53.370;-6.588;2022-08-11T17:06:53;4;4;
38288;PMS5003;24092;53.370;-6.588;2022-08-11T17:09:21;2;2;
38288;PMS5003;24092;53.370;-6.588;2022-08-11T17:11:53;3;3;